VE-0165 weather

Punta de Mata Airport
Punta de Mata, Anzoategui, Venezuela

Public forecast

Using degrees Celsius for public forecast. Weather courtesy of forecast.io.

METAR (pilot weather report)

Report is more than 6 hours old.

Closest report is Maturín Airport, 30.2 nm (55.9 km) E. Retrieved 2018/12/04 12:00 UTC (3 months ago):

SVMT 041200Z /////KT 9999 SCT010 BKN300 23/22 Q1011

TAF (pilot weather forecast)

Forecast is more than 12 hours old.

Closest forecast is General José Antonio Anzoategui International Airport, 67.2 nm (124.4 km) WNW. Retrieved 2019/03/17 18:03 UTC (24 hours ago):

TAF SVBC 170400Z 1718/1818 04005KT 9999 BKN010 TX30/1815Z TN23/1803Z PROB30 TEMPO 1718/1722 060003KT 9999 OVC010